KCLS

Chehalis-Centralia Airport

Chehalis, Washington, USA
METAR KCLS 220355Z AUTO 00000KT 10SM FEW040 04/04 A3042 RMK AO2
Observed Flight Rules
Jan-22 @ 03:55 UTC (21 minutes ago) Visual Flight Rules
Visibility Clouds
10 miles
  • Few at 4,000' AGL
Temperatures Readings
Current 4°C / 39°F
Dewpoint 4°C / 39°F
Humidity 100%
Altimeter 30.42" Hg
Pressure 1030.11 hPa
Elevation 54
METAR KCLS 220355Z AUTO 00000KT 10SM FEW040 04/04 A3042 RMK AO2
Observed Flight Rules
Jan-22 @ 03:55 UTC
(21 minutes ago)
VFR
Clouds
  • Few at 4,000' AGL
Temperature Dewpoint
4°C / 39°F 4°C / 39°F
Humidity Altimeter Pressure
100% 30.42" Hg 1030.11 hPa